Time;durP1;ratioP1;P1;durP2;ratioP2;P2;SDS_P1;SDS_P2;PMS_P1;PMS_P2;Temp;Humidity;BMP_temperature;BMP_pressure;BME280_temperature;BME280_humidity;BME280_pressure;Samples;Min_cycle;Max_cycle;Signal;HPM_P1;HPM_P2
2021/12/19 00:02:09;;;;;;;;;;;;;;;6.52;100.00;103688.56;5075796;28;19938;-35
2021/12/19 00:04:53;;;;;;;;;;;;;;;6.51;100.00;103686.00;5075450;28;19939;-35
2021/12/19 00:10:02;;;;;;;;;;;;;;;6.50;100.00;103679.78;5076247;28;19922;-35
2021/12/19 00:12:27;;;;;;;;;;;;;;;6.49;100.00;103674.53;5076424;28;20010;-35
2021/12/19 00:14:53;;;;;;;;;;;;;;;6.50;100.00;103668.19;5075951;28;19965;-35
2021/12/19 00:17:18;;;;;;;;;;;;;;;6.48;100.00;103670.13;5075526;28;19912;-35
2021/12/19 00:19:43;;;;;;;;;;;;;;;6.48;100.00;103662.06;5075449;28;19958;-35
2021/12/19 00:22:08;;;;;;;;;;;;;;;6.47;100.00;103673.81;5075620;28;19947;-35
2021/12/19 00:24:34;;;;;;;;;;;;;;;6.47;100.00;103668.44;5075134;28;19912;-35
2021/12/19 00:26:59;;;;;;;;;;;;;;;6.44;100.00;103670.44;5075212;28;19913;-35
2021/12/19 00:29:24;;;;;;;;;;;;;;;6.44;100.00;103670.44;5075635;28;19912;-35
2021/12/19 00:31:49;;;;;;;;;;;;;;;6.44;100.00;103664.16;5075749;28;19913;-35
2021/12/19 00:34:15;;;;;;;;;;;;;;;6.41;100.00;103662.63;5075409;28;19912;-35
2021/12/19 00:36:41;;;;;;;;;;;;;;;6.36;100.00;103672.94;5074824;28;19920;-35
2021/12/19 00:39:06;;;;;;;;;;;;;;;6.35;100.00;103660.47;5075376;28;19951;-35
2021/12/19 00:41:32;;;;;;;;;;;;;;;6.30;100.00;103676.16;5074694;28;20011;-35
2021/12/19 00:44:08;;;;;;;;;;;;;;;6.27;100.00;103673.72;5075586;28;20005;-35
2021/12/19 00:46:42;;;;;;;;;;;;;;;6.26;100.00;103666.66;5074894;28;19916;-35
2021/12/19 00:49:08;;;;;;;;;;;;;;;6.25;100.00;103662.28;5074588;28;20361;-35
2021/12/19 00:51:33;;;;;;;;;;;;;;;6.26;100.00;103663.97;5075217;28;19913;-35
2021/12/19 00:53:58;;;;;;;;;;;;;;;6.25;100.00;103659.59;5075368;28;19912;-35
2021/12/19 00:56:24;;;;;;;;;;;;;;;6.25;100.00;103659.59;5074539;28;19918;-35
2021/12/19 00:58:49;;;;;;;;;;;;;;;6.25;100.00;103656.91;5074960;28;20014;-35
2021/12/19 01:01:15;;;;;;;;;;;;;;;6.25;100.00;103653.34;5074655;28;20319;-35
2021/12/19 01:03:46;;;;;;;;;;;;;;;6.24;100.00;103657.00;5074429;28;19912;-35
2021/12/19 01:06:11;;;;;;;;;;;;;;;6.26;100.00;103655.06;5074640;28;20345;-35
2021/12/19 01:08:37;;;;;;;;;;;;;;;6.28;100.00;103647.69;5074747;28;19920;-35
2021/12/19 01:11:02;;;;;;;;;;;;;;;6.26;100.00;103641.63;5074360;28;19923;-35
2021/12/19 01:13:27;;;;;;;;;;;;;;;6.28;100.00;103647.69;5056625;28;19958;-35
2021/12/19 01:15:53;;;;;;;;;;;;;;;6.26;100.00;103652.38;5074149;28;19917;-35
2021/12/19 01:18:19;;;;;;;;;;;;;;;6.25;100.00;103648.84;5074672;28;19912;-35
2021/12/19 01:20:44;;;;;;;;;;;;;;;6.21;100.00;103646.53;5074264;28;19934;-35
2021/12/19 01:23:10;;;;;;;;;;;;;;;6.21;100.00;103643.84;5074760;28;20003;-35
2021/12/19 01:25:36;;;;;;;;;;;;;;;6.21;100.00;103633.09;5074381;28;19919;-35
2021/12/19 01:28:02;;;;;;;;;;;;;;;6.19;100.00;103639.44;5074359;28;19920;-35
2021/12/19 01:30:27;;;;;;;;;;;;;;;6.18;100.00;103632.38;5075085;28;19912;-35
2021/12/19 01:32:53;;;;;;;;;;;;;;;6.15;100.00;103632.66;5073957;28;19939;-35
2021/12/19 01:35:19;;;;;;;;;;;;;;;6.15;100.00;103639.88;5074182;28;19913;-35
2021/12/19 01:37:45;;;;;;;;;;;;;;;6.17;100.00;103640.59;5073670;28;20003;-35
2021/12/19 01:40:11;;;;;;;;;;;;;;;6.15;100.00;103640.72;5074176;28;19919;-35
2021/12/19 01:42:38;;;;;;;;;;;;;;;6.14;100.00;103625.56;5073849;28;19919;-35
2021/12/19 01:45:05;;;;;;;;;;;;;;;6.13;100.00;103634.63;5073691;28;19924;-35
2021/12/19 01:47:30;;;;;;;;;;;;;;;6.11;100.00;103631.22;5073658;28;20007;-35
2021/12/19 01:49:56;;;;;;;;;;;;;;;6.10;100.00;103634.03;5074023;28;20334;-35
2021/12/19 01:52:22;;;;;;;;;;;;;;;6.12;100.00;103622.16;5073656;28;19942;-35
2021/12/19 01:54:47;;;;;;;;;;;;;;;6.09;100.00;103616.22;5074437;28;19951;-35
2021/12/19 01:57:12;;;;;;;;;;;;;;;6.09;100.00;103626.94;5073526;28;19931;-35
2021/12/19 01:59:37;;;;;;;;;;;;;;;6.09;100.00;103627.81;5073615;28;19919;-35
2021/12/19 02:02:03;;;;;;;;;;;;;;;6.10;100.00;103617.91;5073541;28;20397;-35
2021/12/19 02:04:30;;;;;;;;;;;;;;;6.10;100.00;103618.78;5051839;28;20361;-35
2021/12/19 02:06:56;;;;;;;;;;;;;;;6.11;100.00;103615.09;5052079;28;19912;-35
2021/12/19 02:09:21;;;;;;;;;;;;;;;6.12;100.00;103605.19;5053312;28;19913;-36
2021/12/19 02:11:46;;;;;;;;;;;;;;;6.13;100.00;103613.13;5053822;28;19913;-35
2021/12/19 02:14:11;;;;;;;;;;;;;;;6.15;100.00;103613.84;5054246;28;19913;-35
2021/12/19 02:16:37;;;;;;;;;;;;;;;6.12;100.00;103615.94;5053715;28;19913;-35
2021/12/19 02:19:03;;;;;;;;;;;;;;;6.07;100.00;103619.03;5053389;28;19943;-35
2021/12/19 02:21:28;;;;;;;;;;;;;;;6.03;100.00;103617.59;5053101;28;19913;-35
2021/12/19 02:23:57;;;;;;;;;;;;;;;5.99;100.00;103610.78;5053554;28;19913;-35
2021/12/19 02:26:23;;;;;;;;;;;;;;;5.98;100.00;103601.03;5053406;28;19917;-35
2021/12/19 02:28:48;;;;;;;;;;;;;;;5.98;100.00;103597.50;5052257;28;20253;-35
2021/12/19 02:31:13;;;;;;;;;;;;;;;5.94;100.00;103603.13;5052967;28;19913;-35
2021/12/19 02:33:42;;;;;;;;;;;;;;;5.96;100.00;103594.94;5053033;28;19913;-35
2021/12/19 02:36:25;;;;;;;;;;;;;;;5.93;100.00;103587.16;5053388;28;20300;-35
2021/12/19 02:50:10;;;;;;;;;;;;;;;5.77;100.00;103584.06;5011421;28;19971;-36
2021/12/19 02:52:35;;;;;;;;;;;;;;;5.73;100.00;103582.63;5011559;28;19957;-36
2021/12/19 02:55:00;;;;;;;;;;;;;;;5.72;100.00;103580.94;5011065;28;19957;-36
2021/12/19 02:57:25;;;;;;;;;;;;;;;5.70;100.00;103578.34;5011411;28;19914;-36
2021/12/19 02:59:51;;;;;;;;;;;;;;;5.69;100.00;103584.72;5011463;28;19913;-36
2021/12/19 03:02:18;;;;;;;;;;;;;;;5.67;100.00;103579.50;5010997;28;20374;-36
2021/12/19 03:04:59;;;;;;;;;;;;;;;5.68;100.00;103585.69;5011238;28;19921;-37
2021/12/19 03:07:25;;;;;;;;;;;;;;;5.64;100.00;103576.22;5010920;28;19917;-36
2021/12/19 03:12:38;;;;;;;;;;;;;;;5.62;100.00;103567.44;5025468;28;19917;-36
2021/12/19 03:18:00;;;;;;;;;;;;;;;5.59;100.00;103560.50;5052902;28;20348;-36
2021/12/19 03:20:29;;;;;;;;;;;;;;;5.59;100.00;103565.88;5053625;28;19916;-36
2021/12/19 03:22:55;;;;;;;;;;;;;;;5.60;100.00;103564.03;5053232;28;20321;-36
2021/12/19 03:25:20;;;;;;;;;;;;;;;5.59;100.00;103562.34;5053170;28;19960;-36
2021/12/19 03:27:46;;;;;;;;;;;;;;;5.57;100.00;103550.88;5053056;28;20352;-36
2021/12/19 03:30:11;;;;;;;;;;;;;;;5.56;100.00;103558.09;5052993;28;20318;-36
2021/12/19 03:32:36;;;;;;;;;;;;;;;5.54;100.00;103548.44;5052979;28;19912;-36
2021/12/19 03:35:02;;;;;;;;;;;;;;;5.48;100.00;103551.69;5052953;28;19912;-36
2021/12/19 03:37:27;;;;;;;;;;;;;;;5.49;100.00;103550.69;5052597;28;19916;-36
2021/12/19 03:39:57;;;;;;;;;;;;;;;5.50;100.00;103555.06;5053686;28;19979;-36
2021/12/19 03:42:26;;;;;;;;;;;;;;;5.51;100.00;103546.88;5056174;28;19917;-36
2021/12/19 03:44:52;;;;;;;;;;;;;;;5.50;100.00;103545.19;5056603;28;19920;-36
2021/12/19 03:47:17;;;;;;;;;;;;;;;5.50;100.00;103547.00;5056047;28;19924;-36
2021/12/19 03:49:42;;;;;;;;;;;;;;;5.47;100.00;103541.94;5056068;28;19916;-36
2021/12/19 03:52:07;;;;;;;;;;;;;;;5.45;100.00;103541.19;5055981;28;20257;-36
2021/12/19 03:54:33;;;;;;;;;;;;;;;5.42;100.00;103535.13;5056512;28;19913;-36
2021/12/19 03:56:58;;;;;;;;;;;;;;;5.42;100.00;103543.16;5056164;28;19913;-36
2021/12/19 03:59:26;;;;;;;;;;;;;;;5.40;100.00;103542.44;5056389;28;20264;-36
2021/12/19 04:01:52;;;;;;;;;;;;;;;5.39;100.00;103542.56;5055504;28;20364;-36
2021/12/19 04:04:17;;;;;;;;;;;;;;;5.36;100.00;103535.63;5061492;28;19962;-36
2021/12/19 04:06:43;;;;;;;;;;;;;;;5.32;100.00;103536.00;5075657;28;19912;-36
2021/12/19 04:09:08;;;;;;;;;;;;;;;5.31;100.00;103535.16;5075906;28;19912;-36
2021/12/19 04:11:33;;;;;;;;;;;;;;;5.31;100.00;103531.63;5075673;28;19920;-36
2021/12/19 04:13:58;;;;;;;;;;;;;;;5.32;100.00;103517.22;5075416;28;19958;-36
2021/12/19 04:16:24;;;;;;;;;;;;;;;5.31;100.00;103504.78;5075513;28;20313;-36
2021/12/19 04:18:49;;;;;;;;;;;;;;;5.29;100.00;103512.13;5075961;28;20011;-36
2021/12/19 04:21:14;;;;;;;;;;;;;;;5.29;100.00;103506.78;5076024;28;19912;-36
2021/12/19 04:23:40;;;;;;;;;;;;;;;5.30;100.00;103508.47;5075995;28;20344;-36
2021/12/19 04:26:05;;;;;;;;;;;;;;;5.32;100.00;103504.69;5075339;28;20022;-36
2021/12/19 04:28:31;;;;;;;;;;;;;;;5.34;100.00;103500.03;5075402;28;19967;-36
2021/12/19 04:30:56;;;;;;;;;;;;;;;5.34;100.00;103488.44;5075058;28;19913;-36
2021/12/19 04:33:23;;;;;;;;;;;;;;;5.33;100.00;103481.38;5074988;28;19912;-34
2021/12/19 04:35:48;;;;;;;;;;;;;;;5.29;100.00;103478.09;5075960;28;20006;-35
2021/12/19 04:54:29;;;;;;;;;;;;;;;5.29;100.00;103466.53;5074607;28;19912;-35
2021/12/19 05:15:55;;;;;;;;;;;;;;;5.22;100.00;103454.59;5013085;28;19964;-35
2021/12/19 05:18:24;;;;;;;;;;;;;;;5.23;100.00;103453.66;5012354;28;19914;-35
2021/12/19 05:20:56;;;;;;;;;;;;;;;5.23;100.00;103457.19;5012642;28;19967;-35
2021/12/19 05:23:33;;;;;;;;;;;;;;;5.23;100.00;103456.34;5012782;28;19917;-35
2021/12/19 05:25:59;;;;;;;;;;;;;;;5.23;100.00;103456.34;5012639;28;20324;-35
2021/12/19 05:28:24;;;;;;;;;;;;;;;5.24;100.00;103458.88;5012705;28;19944;-35
2021/12/19 05:30:49;;;;;;;;;;;;;;;5.25;100.00;103449.84;4996291;28;20015;-35
2021/12/19 05:33:16;;;;;;;;;;;;;;;5.27;100.00;103453.25;5012071;28;19917;-35
2021/12/19 05:46:21;;;;;;;;;;;;;;;5.29;100.00;103448.59;5054148;28;19964;-35
2021/12/19 05:48:46;;;;;;;;;;;;;;;5.29;100.00;103451.28;5053852;28;20285;-35
2021/12/19 05:51:11;;;;;;;;;;;;;;;5.28;100.00;103449.59;5053618;28;19986;-35
2021/12/19 05:53:37;;;;;;;;;;;;;;;5.29;100.00;103447.75;5053760;28;20054;-35
2021/12/19 05:56:03;;;;;;;;;;;;;;;5.27;100.00;103429.09;5053480;28;19967;-35
2021/12/19 05:58:28;;;;;;;;;;;;;;;5.28;100.00;103430.81;5052731;28;20247;-35
2021/12/19 06:00:53;;;;;;;;;;;;;;;5.28;100.00;103428.13;5053504;28;20003;-35
2021/12/19 06:03:19;;;;;;;;;;;;;;;5.29;100.00;103428.97;5052215;28;20003;-35
2021/12/19 06:05:44;;;;;;;;;;;;;;;5.30;100.00;103428.81;5071463;28;19956;-35
2021/12/19 06:08:09;;;;;;;;;;;;;;;5.30;100.00;103431.50;5073523;28;19939;-35
2021/12/19 06:10:34;;;;;;;;;;;;;;;5.30;100.00;103428.81;5055565;28;19999;-35
2021/12/19 06:13:00;;;;;;;;;;;;;;;5.29;100.00;103437.00;5073129;28;19912;-35
2021/12/19 06:15:25;;;;;;;;;;;;;;;5.30;100.00;103420.78;5073414;28;19916;-35
2021/12/19 06:17:52;;;;;;;;;;;;;;;5.31;100.00;103425.16;5073340;28;19916;-35
2021/12/19 06:20:17;;;;;;;;;;;;;;;5.34;100.00;103427.56;5073601;28;19951;-35
2021/12/19 06:22:42;;;;;;;;;;;;;;;5.36;100.00;103435.47;5073291;28;19955;-35
2021/12/19 06:25:08;;;;;;;;;;;;;;;5.35;100.00;103433.78;5073048;28;19912;-35
2021/12/19 06:27:33;;;;;;;;;;;;;;;5.36;100.00;103440.84;5072969;28;19912;-35
2021/12/19 06:29:59;;;;;;;;;;;;;;;5.36;100.00;103430.97;5074126;28;19983;-35
2021/12/19 06:32:24;;;;;;;;;;;;;;;5.35;100.00;103426.59;5073224;28;19998;-35
2021/12/19 06:34:49;;;;;;;;;;;;;;;5.37;100.00;103427.31;5073969;28;20015;-35
2021/12/19 06:37:14;;;;;;;;;;;;;;;5.37;100.00;103413.91;5073217;28;19919;-35
2021/12/19 06:39:40;;;;;;;;;;;;;;;5.39;100.00;103419.13;5073196;28;19924;-35
2021/12/19 06:42:06;;;;;;;;;;;;;;;5.40;100.00;103418.97;5072919;28;19913;-35
2021/12/19 06:44:32;;;;;;;;;;;;;;;5.40;100.00;103410.94;5073670;28;19916;-35
2021/12/19 06:46:57;;;;;;;;;;;;;;;5.40;100.00;103410.09;5072719;28;19936;-35
2021/12/19 06:49:22;;;;;;;;;;;;;;;5.41;100.00;103406.41;5073820;28;19916;-35
2021/12/19 06:51:47;;;;;;;;;;;;;;;5.42;100.00;103402.78;5073589;28;20229;-35
2021/12/19 06:54:13;;;;;;;;;;;;;;;5.42;100.00;103390.19;5073030;28;19927;-35
2021/12/19 06:56:38;;;;;;;;;;;;;;;5.43;100.00;103386.53;5054323;28;20334;-35
2021/12/19 06:59:03;;;;;;;;;;;;;;;5.45;100.00;103380.16;5073362;28;19912;-35
2021/12/19 07:01:28;;;;;;;;;;;;;;;5.46;100.00;103376.50;5073633;28;19912;-35
2021/12/19 07:03:54;;;;;;;;;;;;;;;5.45;100.00;103372.13;5073115;28;19912;-35
2021/12/19 07:06:19;;;;;;;;;;;;;;;5.47;100.00;103367.47;5072841;28;19962;-35
2021/12/19 07:08:44;;;;;;;;;;;;;;;5.47;100.00;103379.06;5073226;28;19913;-35
2021/12/19 07:11:09;;;;;;;;;;;;;;;5.48;100.00;103375.38;5072876;28;19966;-35
2021/12/19 07:13:34;;;;;;;;;;;;;;;5.49;100.00;103379.75;5073097;28;19958;-35
2021/12/19 07:16:00;;;;;;;;;;;;;;;5.51;100.00;103376.94;5075454;28;20309;-35
2021/12/19 07:18:25;;;;;;;;;;;;;;;5.54;100.00;103379.34;5076648;28;20318;-35
2021/12/19 07:20:50;;;;;;;;;;;;;;;5.52;100.00;103376.81;5076837;28;19912;-35
2021/12/19 07:23:17;;;;;;;;;;;;;;;5.54;100.00;103379.34;5076582;28;20421;-35
2021/12/19 07:25:43;;;;;;;;;;;;;;;5.55;100.00;103379.22;5076908;28;19954;-35
2021/12/19 07:28:08;;;;;;;;;;;;;;;5.56;100.00;103380.06;5076354;28;19966;-35
2021/12/19 07:30:36;;;;;;;;;;;;;;;5.57;100.00;103376.41;5077081;28;19912;-35
2021/12/19 07:33:02;;;;;;;;;;;;;;;5.58;100.00;103376.25;5075972;28;20379;-35
2021/12/19 07:35:30;;;;;;;;;;;;;;;5.59;100.00;103371.75;5077134;28;20333;-35
2021/12/19 07:37:55;;;;;;;;;;;;;;;5.60;100.00;103373.44;5076498;28;19926;-35
2021/12/19 07:40:23;;;;;;;;;;;;;;;5.61;100.00;103369.75;5075983;28;19912;-35
2021/12/19 07:42:48;;;;;;;;;;;;;;;5.61;100.00;103364.38;5076328;28;19912;-35
2021/12/19 07:45:15;;;;;;;;;;;;;;;5.63;100.00;103365.13;5076453;28;19920;-35
2021/12/19 07:47:40;;;;;;;;;;;;;;;5.64;100.00;103362.28;5076036;28;19958;-35
2021/12/19 07:50:10;;;;;;;;;;;;;;;5.66;100.00;103354.97;5076660;28;20061;-35
2021/12/19 07:52:35;;;;;;;;;;;;;;;5.69;100.00;103356.50;5075777;28;19913;-35
2021/12/19 07:55:01;;;;;;;;;;;;;;;5.69;100.00;103357.34;5076164;28;19912;-35
2021/12/19 07:57:26;;;;;;;;;;;;;;;5.71;100.00;103357.25;5075805;28;20403;-35
2021/12/19 07:59:51;;;;;;;;;;;;;;;5.72;100.00;103352.72;5076446;28;19919;-35
2021/12/19 08:02:16;;;;;;;;;;;;;;;5.74;100.00;103343.53;5076100;28;19912;-35
2021/12/19 08:04:42;;;;;;;;;;;;;;;5.75;100.00;103344.38;5076165;28;19966;-35
2021/12/19 08:07:11;;;;;;;;;;;;;;;5.77;100.00;103335.19;5075671;28;20297;-35
2021/12/19 08:09:39;;;;;;;;;;;;;;;5.77;100.00;103348.63;5076401;28;19912;-35
2021/12/19 08:12:04;;;;;;;;;;;;;;;5.81;100.00;103349.22;5075511;28;19912;-35
2021/12/19 08:14:29;;;;;;;;;;;;;;;5.79;100.00;103346.63;5075636;28;19970;-35
2021/12/19 08:16:55;;;;;;;;;;;;;;;5.79;100.00;103352.00;5075487;28;19919;-35
2021/12/19 08:19:20;;;;;;;;;;;;;;;5.82;100.00;103345.53;5075501;28;19913;-35
2021/12/19 08:21:45;;;;;;;;;;;;;;;5.84;100.00;103344.38;5075401;28;19912;-35
2021/12/19 08:24:12;;;;;;;;;;;;;;;5.86;100.00;103334.38;5075662;28;19916;-35
2021/12/19 08:26:38;;;;;;;;;;;;;;;5.88;100.00;103344.97;5074581;28;20348;-35
2021/12/19 08:29:03;;;;;;;;;;;;;;;5.88;100.00;103340.44;5075205;28;20383;-35
2021/12/19 08:31:30;;;;;;;;;;;;;;;5.88;100.00;103334.22;5075562;28;19913;-35
2021/12/19 08:33:55;;;;;;;;;;;;;;;5.87;100.00;103333.38;5075513;28;19919;-35
2021/12/19 08:36:21;;;;;;;;;;;;;;;5.88;100.00;103340.44;5075668;28;20007;-35
2021/12/19 08:38:47;;;;;;;;;;;;;;;5.91;100.00;103337.53;5075549;28;19918;-35
2021/12/19 08:41:12;;;;;;;;;;;;;;;5.92;100.00;103341.91;5074836;28;19970;-35
2021/12/19 08:43:37;;;;;;;;;;;;;;;5.95;100.00;103340.75;5075664;28;20369;-34
2021/12/19 08:46:03;;;;;;;;;;;;;;;5.97;100.00;103335.25;5075037;28;19968;-34
2021/12/19 08:48:28;;;;;;;;;;;;;;;5.97;100.00;103338.78;5075391;28;19919;-34
2021/12/19 08:50:53;;;;;;;;;;;;;;;5.99;100.00;103335.97;5075423;28;20256;-36
2021/12/19 08:53:19;;;;;;;;;;;;;;;5.98;100.00;103336.97;5074991;28;20363;-35
2021/12/19 08:55:44;;;;;;;;;;;;;;;5.99;100.00;103330.59;5074911;28;19965;-35
2021/12/19 08:58:10;;;;;;;;;;;;;;;6.02;100.00;103333.00;5074820;28;19927;-35
2021/12/19 09:01:02;;;;;;;6.38;3.67;;;;;;;5.94;100.00;103318.44;5112064;27;1221448;-34
2021/12/19 09:03:31;;;;;;;8.70;3.95;;;;;;;5.96;100.00;103320.16;5131609;27;20050;-34
2021/12/19 09:05:57;;;;;;;5.95;3.75;;;;;;;5.79;100.00;103294.78;5130895;27;20175;-34
2021/12/19 09:08:23;;;;;;;9.15;4.43;;;;;;;5.99;100.00;103319.84;5131428;27;20031;-35
2021/12/19 09:10:48;;;;;;;7.57;4.30;;;;;;;5.90;100.00;103300.88;5130753;28;20106;-35
2021/12/19 09:13:13;;;;;;;6.80;4.00;;;;;;;5.98;100.00;103319.00;5131495;28;20464;-35
2021/12/19 09:15:39;;;;;;;13.93;4.30;;;;;;;5.98;100.00;103315.47;5130634;28;20028;-35
2021/12/19 09:18:04;;;;;;;9.48;4.85;;;;;;;6.00;100.00;103317.00;5131169;28;20024;-35
2021/12/19 09:20:30;;;;;;;8.20;4.73;;;;;;;5.97;100.00;103317.31;5131075;28;20027;-35
2021/12/19 09:22:55;;;;;;;10.13;4.97;;;;;;;6.00;100.00;103310.78;5130616;27;20035;-35
2021/12/19 09:25:21;;;;;;;11.00;5.43;;;;;;;6.02;100.00;103319.56;5131060;28;20055;-35
2021/12/19 09:27:47;;;;;;;11.73;6.50;;;;;;;5.94;100.00;103302.31;5131240;27;20062;-35
2021/12/19 09:30:12;;;;;;;9.77;6.07;;;;;;;6.04;100.00;103320.28;5130447;27;20494;-35
2021/12/19 09:32:39;;;;;;;12.77;6.55;;;;;;;6.06;100.00;103321.00;5130272;27;20036;-35
2021/12/19 09:35:06;;;;;;;11.77;6.95;;;;;;;6.06;100.00;103321.00;5130883;27;20391;-35
2021/12/19 09:37:35;;;;;;;14.70;7.47;;;;;;;6.04;100.00;103314.91;5130604;27;20031;-35
2021/12/19 09:40:03;;;;;;;12.82;7.32;;;;;;;5.96;100.00;103298.66;5130730;27;20038;-35
2021/12/19 09:42:33;;;;;;;14.55;9.43;;;;;;;6.04;100.00;103315.75;5130448;27;20038;-35
2021/12/19 09:45:00;;;;;;;14.05;8.10;;;;;;;6.01;100.00;103313.34;5131185;27;20039;-35
2021/12/19 09:47:25;;;;;;;12.90;8.05;;;;;;;5.93;100.00;103297.09;5130695;27;20055;-35
2021/12/19 09:49:51;;;;;;;15.97;8.93;;;;;;;6.05;100.00;103312.09;5131183;27;20123;-35
2021/12/19 09:52:16;;;;;;;17.83;8.70;;;;;;;6.07;100.00;103311.94;5130381;27;20024;-35
2021/12/19 09:54:42;;;;;;;14.77;8.87;;;;;;;6.09;100.00;103321.53;5130572;27;20050;-35
2021/12/19 09:57:07;;;;;;;14.00;8.53;;;;;;;6.12;100.00;103325.78;5130350;27;20030;-35
2021/12/19 09:59:33;;;;;;;12.03;8.20;;;;;;;6.05;100.00;103305.84;5130199;27;20043;-35
2021/12/19 10:01:58;;;;;;;12.43;7.93;;;;;;;6.07;100.00;103303.88;5129871;27;20675;-35
2021/12/19 10:04:27;;;;;;;14.40;8.15;;;;;;;6.14;100.00;103315.75;5130648;27;20034;-35
2021/12/19 10:07:20;;;;;;;11.63;7.53;;;;;;;6.18;100.00;103325.22;5130012;28;20203;-35
2021/12/19 10:10:04;;;;;;;8.73;6.70;;;;;;;6.15;100.00;103315.63;5047347;28;20079;-35
2021/12/19 10:15:09;;;;;;;8.15;5.90;;;;;;;6.18;100.00;103309.09;5033840;28;20489;-35
2021/12/19 10:17:34;;;;;;;9.20;6.03;;;;;;;6.17;100.00;103307.41;5033961;28;20596;-35
2021/12/19 10:20:03;;;;;;;11.10;6.65;;;;;;;6.18;100.00;103303.72;5033135;28;20053;-35
2021/12/19 10:22:42;;;;;;;10.60;6.63;;;;;;;6.18;100.00;103295.66;5033664;28;20025;-35
2021/12/19 10:25:11;;;;;;;10.13;6.38;;;;;;;6.19;100.00;103297.34;5033137;28;20048;-35
2021/12/19 10:27:41;;;;;;;9.23;7.05;;;;;;;6.18;100.00;103293.81;5033121;28;20600;-34
2021/12/19 10:30:25;;;;;;;11.38;7.20;;;;;;;6.19;100.00;103290.16;5033651;28;20033;-35
2021/12/19 10:33:19;;;;;;;10.45;6.63;;;;;;;6.22;100.00;103282.81;5033182;28;20156;-34
2021/12/19 10:35:54;;;;;;;11.65;6.78;;;;;;;6.22;100.00;103278.28;5032868;28;20078;-34
2021/12/19 10:38:25;;;;;;;12.07;6.75;;;;;;;6.24;100.00;103280.81;5032846;28;20041;-34
2021/12/19 10:41:00;;;;;;;8.20;6.07;;;;;;;6.24;100.00;103278.97;5033386;28;20033;-35
2021/12/19 10:43:29;;;;;;;8.07;5.65;;;;;;;6.23;100.00;103282.66;5032816;28;20033;-35
2021/12/19 10:45:59;;;;;;;7.80;5.70;;;;;;;6.24;100.00;103283.50;5048990;28;20360;-35
2021/12/19 10:48:36;;;;;;;9.60;5.65;;;;;;;6.25;100.00;103277.16;5115780;27;20076;-35
2021/12/19 10:51:04;;;;;;;8.82;5.50;;;;;;;6.28;100.00;103268.78;5115438;28;20036;-35
2021/12/19 10:53:39;;;;;;;8.10;5.28;;;;;;;6.33;100.00;103271.91;5115564;28;20039;-35
2021/12/19 10:56:17;;;;;;;6.63;4.95;;;;;;;6.34;100.00;103263.69;5115874;28;20033;-35
2021/12/19 10:58:47;;;;;;;7.18;5.28;;;;;;;6.33;100.00;103270.06;5115975;28;20098;-36
2021/12/19 11:01:14;;;;;;;7.47;4.60;;;;;;;6.36;100.00;103266.25;5116148;28;20059;-36
2021/12/19 11:03:49;;;;;;;6.88;4.22;;;;;;;6.18;100.00;103237.41;5115935;28;20023;-35
2021/12/19 11:06:22;;;;;;;7.55;3.35;;;;;;;6.37;100.00;103249.97;5115782;28;20020;-35
2021/12/19 11:08:49;;;;;;;6.80;2.65;;;;;;;6.37;100.00;103249.97;5115921;28;20059;-35
2021/12/19 11:11:54;;;;;;;2.83;1.98;;;;;;;6.30;100.00;103226.53;5114960;28;20061;-35
2021/12/19 11:14:30;;;;;;;2.75;1.83;;;;;;;6.29;100.00;103239.09;5111871;28;20046;-35
2021/12/19 11:16:59;;;;;;;2.80;1.67;;;;;;;6.31;100.00;103226.38;5115878;28;20028;-35
2021/12/19 11:19:25;;;;;;;2.30;1.55;;;;;;;6.34;100.00;103227.91;5115025;28;20023;-34
2021/12/19 11:21:51;;;;;;;2.75;1.45;;;;;;;6.33;100.00;103215.47;5114760;28;20371;-35
2021/12/19 11:24:23;;;;;;;2.17;1.27;;;;;;;6.39;100.00;103214.88;5114680;28;20038;-35
2021/12/19 11:26:51;;;;;;;3.30;1.52;;;;;;;6.41;100.00;103211.06;5115472;28;20440;-35
2021/12/19 11:29:17;;;;;;;3.20;1.90;;;;;;;6.36;100.00;103189.16;5115057;28;20046;-35
2021/12/19 11:31:47;;;;;;;2.72;1.80;;;;;;;6.36;100.00;103191.00;5114977;28;20032;-35
2021/12/19 11:34:24;;;;;;;2.75;2.08;;;;;;;6.48;100.00;103200.56;5114711;28;20373;-35
2021/12/19 11:37:15;;;;;;;;;;;;;;;6.56;100.00;103195.31;5115300;28;20110;-35
2021/12/19 11:39:46;;;;;;;2.35;1.42;;;;;;;6.51;100.00;103202.97;5110445;28;20065;-35
2021/12/19 11:42:14;;;;;;;2.75;1.80;;;;;;;6.33;100.00;103169.78;5114659;28;20079;-35
2021/12/19 11:47:50;;;;;;;2.17;1.38;;;;;;;6.49;100.00;103187.97;5115107;28;20038;-36
2021/12/19 11:50:25;;;;;;;1.73;1.10;;;;;;;6.37;100.00;103177.41;5114812;28;20028;-35
2021/12/19 11:53:12;;;;;;;1.85;1.10;;;;;;;6.45;100.00;103180.22;5115174;28;20051;-35
2021/12/19 11:55:43;;;;;;;1.60;1.20;;;;;;;6.51;100.00;103191.38;5051557;28;20068;-35
2021/12/19 11:58:08;;;;;;;2.85;1.52;;;;;;;6.53;100.00;103181.31;5051703;28;20275;-35
2021/12/19 12:00:59;;;;;;;3.47;1.60;;;;;;;6.49;100.00;103169.16;5051766;28;20435;-35
2021/12/19 12:03:28;;;;;;;2.38;1.90;;;;;;;6.41;100.00;103164.53;5051970;28;20369;-35
2021/12/19 12:06:23;;;;;;;3.35;1.95;;;;;;;6.53;100.00;103171.41;5051586;28;20195;-35
2021/12/19 12:09:09;;;;;;;4.15;1.98;;;;;;;6.53;100.00;103174.09;5051625;28;20135;-35
2021/12/19 12:11:37;;;;;;;4.47;2.22;;;;;;;6.60;100.00;103171.69;5051058;28;20060;-35
2021/12/19 12:14:21;;;;;;;5.28;1.98;;;;;;;6.55;100.00;103166.75;5051504;28;20051;-35
2021/12/19 12:16:52;;;;;;;3.55;2.60;;;;;;;6.53;100.00;103157.13;5050889;28;20025;-35
2021/12/19 12:19:41;;;;;;;3.42;2.30;;;;;;;6.52;100.00;103161.66;5051575;28;20123;-35
2021/12/19 12:22:25;;;;;;;5.05;3.25;;;;;;;6.53;100.00;103157.13;5051181;28;20082;-35
2021/12/19 12:25:27;;;;;;;10.23;7.57;;;;;;;6.51;100.00;103149.22;5050858;28;20036;-35
2021/12/19 12:28:03;;;;;;;7.18;5.88;;;;;;;6.34;100.00;103125.78;5050745;28;20373;-35
2021/12/19 12:30:35;;;;;;;19.58;16.52;;;;;;;6.52;100.00;103150.91;5051577;28;20035;-35
2021/12/19 12:33:03;;;;;;;13.90;10.45;;;;;;;6.53;100.00;103149.06;5090546;28;20454;-35
2021/12/19 12:35:31;;;;;;;15.98;11.05;;;;;;;6.44;100.00;103126.59;5113732;28;20405;-35
2021/12/19 12:37:58;;;;;;;26.55;19.77;;;;;;;6.52;100.00;103133.91;5113573;28;20031;-34
2021/12/19 12:40:45;;;;;;;18.95;13.07;;;;;;;6.47;100.00;103131.69;5113419;28;20046;-35
2021/12/19 12:43:19;;;;;;;19.90;13.25;;;;;;;6.43;100.00;103119.53;5114078;28;20115;-35
2021/12/19 12:45:50;;;;;;;18.73;12.15;;;;;;;6.48;100.00;103121.78;5113959;28;20062;-34
2021/12/19 12:49:11;;;;;;;25.35;18.65;;;;;;;6.42;100.00;103112.47;5113788;28;20127;-35
2021/12/19 12:51:41;;;;;;;12.35;8.30;;;;;;;6.48;100.00;103129.84;5050630;28;20036;-35
2021/12/19 12:54:36;;;;;;;11.45;8.18;;;;;;;6.52;100.00;103125.84;5050750;28;20033;-35
2021/12/19 12:57:04;;;;;;;6.43;4.43;;;;;;;6.48;100.00;103121.78;5010782;28;20060;-35
2021/12/19 12:59:35;;;;;;;6.57;3.80;;;;;;;6.40;100.00;103107.25;5010352;28;20054;-35
2021/12/19 13:02:17;;;;;;;9.02;4.50;;;;;;;6.50;100.00;103114.41;5011336;28;20129;-35
2021/12/19 13:04:45;;;;;;;6.47;3.83;;;;;;;6.45;100.00;103112.19;5010742;28;20065;-34
2021/12/19 13:07:15;;;;;;;6.78;3.72;;;;;;;6.50;100.00;103106.34;5010597;28;20061;-34
2021/12/19 13:09:44;;;;;;;9.23;5.20;;;;;;;6.48;100.00;103105.63;5011131;28;20038;-35
2021/12/19 13:12:26;;;;;;;23.65;15.93;;;;;;;6.49;100.00;103101.94;5010611;28;20119;-36
2021/12/19 13:15:06;;;;;;;16.95;10.60;;;;;;;6.48;100.00;103105.63;5010932;28;20475;-35
2021/12/19 13:17:32;;;;;;;13.40;8.48;;;;;;;6.47;100.00;103102.13;5010447;28;20042;-35
2021/12/19 13:20:08;;;;;;;10.88;6.88;;;;;;;6.50;100.00;103098.28;5010518;28;20029;-35
2021/12/19 13:22:54;;;;;;;11.88;6.45;;;;;;;6.54;100.00;103102.34;5057316;28;20127;-35
2021/12/19 13:25:29;;;;;;;10.73;6.78;;;;;;;6.59;100.00;103097.41;5071009;28;20111;-35
2021/12/19 13:28:03;;;;;;;11.55;5.80;;;;;;;6.56;100.00;103086.94;5070921;28;20116;-35